createdAt,value
2019-03-04T00:01:12.966Z,86.20
2019-03-04T00:03:43.752Z,86.20
2019-03-04T00:06:14.749Z,86.40
2019-03-04T00:08:46.044Z,86.20
2019-03-04T00:11:17.116Z,86.00
2019-03-04T00:13:47.861Z,86.20
2019-03-04T00:16:18.768Z,85.70
2019-03-04T00:18:49.538Z,85.50
2019-03-04T00:21:20.533Z,85.50
2019-03-04T00:23:51.410Z,85.20
2019-03-04T00:26:22.152Z,85.00
2019-03-04T00:28:53.058Z,85.30
2019-03-04T00:31:23.832Z,85.60
2019-03-04T00:33:54.575Z,85.50
2019-03-04T00:36:25.527Z,85.60
2019-03-04T00:38:56.442Z,85.20
2019-03-04T00:41:27.185Z,85.30
2019-03-04T00:43:58.396Z,85.50
2019-03-04T00:46:29.164Z,85.70
2019-03-04T00:49:20.370Z,85.50
2019-03-04T00:51:51.080Z,85.50
2019-03-04T00:54:22.120Z,85.50
2019-03-04T00:56:56.024Z,85.30
2019-03-04T00:59:26.700Z,84.90
2019-03-04T01:01:58.370Z,84.80
2019-03-04T01:04:29.466Z,85.00
2019-03-04T01:07:00.244Z,84.70
2019-03-04T01:09:30.975Z,84.70
2019-03-04T01:12:01.872Z,84.50
2019-03-04T01:14:32.655Z,84.70
2019-03-04T01:17:03.393Z,84.60
2019-03-04T01:19:34.287Z,84.10
2019-03-04T01:22:05.070Z,84.20
2019-03-04T01:24:35.796Z,83.90
2019-03-04T01:27:06.793Z,84.10
2019-03-04T01:29:37.573Z,83.70
2019-03-04T01:32:08.320Z,83.50
2019-03-04T01:34:39.215Z,82.20
2019-03-04T01:37:09.992Z,81.90
2019-03-04T01:39:40.727Z,82.20
2019-03-04T01:42:11.696Z,82.40
2019-03-04T01:44:42.500Z,82.70
2019-03-04T01:47:13.603Z,82.50
2019-03-04T01:49:44.544Z,82.20
2019-03-04T01:52:15.320Z,81.70
2019-03-04T01:54:46.053Z,80.40
2019-03-04T01:57:17.247Z,79.50
2019-03-04T01:59:48.213Z,79.80
2019-03-04T02:02:19.081Z,79.80
2019-03-04T02:04:49.994Z,79.90
2019-03-04T02:07:20.764Z,80.40
2019-03-04T02:09:51.589Z,80.00
2019-03-04T02:13:01.498Z,79.90
2019-03-04T02:15:32.286Z,80.00
2019-03-04T02:18:03.016Z,80.40
2019-03-04T02:20:33.924Z,80.80
2019-03-04T02:23:04.700Z,80.80
2019-03-04T02:25:40.720Z,80.10
2019-03-04T02:28:11.500Z,79.70
2019-03-04T02:30:42.246Z,79.50
2019-03-04T02:33:13.100Z,78.90
2019-03-04T02:35:44.079Z,78.60
2019-03-04T02:38:14.964Z,78.40
2019-03-04T02:41:04.969Z,78.80
2019-03-04T02:43:35.746Z,78.80
2019-03-04T02:46:06.522Z,78.60
2019-03-04T02:48:38.237Z,77.00
2019-03-04T02:51:09.222Z,77.50
2019-03-04T02:53:39.945Z,78.70
2019-03-04T02:56:10.847Z,77.80
2019-03-04T02:58:42.450Z,77.70
2019-03-04T03:01:13.388Z,76.80
2019-03-04T03:03:44.380Z,75.80
2019-03-04T03:06:15.374Z,75.60
2019-03-04T03:08:46.171Z,75.90
2019-03-04T03:11:17.065Z,74.70
2019-03-04T03:13:47.778Z,73.50
2019-03-04T03:16:18.515Z,73.90
2019-03-04T03:18:49.430Z,73.30
2019-03-04T03:21:20.425Z,73.10
2019-03-04T03:23:51.244Z,72.70
2019-03-04T03:26:22.128Z,72.00
2019-03-04T03:28:52.853Z,71.80
2019-03-04T03:31:23.857Z,72.00
2019-03-04T03:33:54.860Z,72.40
2019-03-04T03:36:25.726Z,71.90
2019-03-04T03:38:56.461Z,71.80
2019-03-04T03:41:27.440Z,72.10
2019-03-04T03:43:58.242Z,71.70
2019-03-04T03:46:28.991Z,71.80
2019-03-04T03:49:00.346Z,72.40
2019-03-04T03:51:31.030Z,70.90
2019-03-04T03:54:01.920Z,70.80
2019-03-04T03:56:33.021Z,71.30
2019-03-04T03:59:03.778Z,71.40
2019-03-04T04:01:34.910Z,70.70
2019-03-04T04:04:07.418Z,71.50
2019-03-04T04:06:38.344Z,69.70
2019-03-04T04:09:09.090Z,69.00
2019-03-04T04:11:40.090Z,69.60
2019-03-04T04:14:10.862Z,69.80
2019-03-04T04:20:11.070Z,68.60
2019-03-04T04:22:41.972Z,67.70
2019-03-04T04:25:13.465Z,67.80
2019-03-04T04:27:44.229Z,66.40
2019-03-04T04:30:22.736Z,66.00
2019-03-04T04:32:58.408Z,67.00
2019-03-04T04:35:28.284Z,67.70
2019-03-04T04:37:59.060Z,67.50
2019-03-04T04:40:29.785Z,66.70
2019-03-04T04:43:00.688Z,67.60
2019-03-04T04:45:31.462Z,67.40
2019-03-04T04:48:02.413Z,67.70
2019-03-04T04:50:34.291Z,67.60
2019-03-04T04:53:05.116Z,67.60
2019-03-04T04:55:36.058Z,67.10
2019-03-04T04:58:07.025Z,66.50
2019-03-04T05:00:37.792Z,66.30
2019-03-04T05:03:08.863Z,66.50
2019-03-04T05:05:39.727Z,62.80
2019-03-04T05:08:10.436Z,64.50
2019-03-04T05:10:41.282Z,66.20
2019-03-04T05:13:12.246Z,66.70
2019-03-04T05:15:43.013Z,66.70
2019-03-04T05:18:58.651Z,64.30
2019-03-04T05:21:29.489Z,64.70
2019-03-04T05:24:00.385Z,65.30
2019-03-04T05:26:31.333Z,65.90
2019-03-04T05:29:53.509Z,65.30
2019-03-04T05:32:24.605Z,66.00
2019-03-04T05:34:55.380Z,65.00
2019-03-04T05:37:26.088Z,64.70
2019-03-04T05:39:57.166Z,65.10
2019-03-04T05:42:27.980Z,65.50
2019-03-04T05:44:58.743Z,64.60
2019-03-04T05:47:29.592Z,65.10
2019-03-04T05:50:00.322Z,65.30
2019-03-04T05:52:31.406Z,64.80
2019-03-04T05:55:02.466Z,62.80
2019-03-04T05:57:33.334Z,63.20
2019-03-04T06:00:04.270Z,63.70
2019-03-04T06:02:35.168Z,63.50
2019-03-04T06:05:07.697Z,61.80
2019-03-04T06:07:40.067Z,62.70
2019-03-04T06:10:12.194Z,61.70
2019-03-04T06:12:42.964Z,61.80
2019-03-04T06:15:16.637Z,59.60
2019-03-04T06:17:47.409Z,60.40
2019-03-04T06:20:19.627Z,60.20
2019-03-04T06:22:50.594Z,59.80
2019-03-04T06:25:26.212Z,59.50
2019-03-04T06:27:55.976Z,59.90
2019-03-04T06:30:31.346Z,59.90
2019-03-04T06:33:02.233Z,60.70
2019-03-04T06:35:33.010Z,60.30
2019-03-04T06:38:03.847Z,61.50
2019-03-04T06:40:34.996Z,60.00
2019-03-04T06:43:06.130Z,60.60
2019-03-04T06:45:36.893Z,58.80
2019-03-04T06:48:07.772Z,59.00
2019-03-04T06:50:55.400Z,59.50
2019-03-04T06:53:38.125Z,58.60
2019-03-04T06:56:26.776Z,58.10
2019-03-04T06:59:09.638Z,59.30
2019-03-04T07:01:49.077Z,60.00
2019-03-04T07:07:49.202Z,59.40
2019-03-04T07:10:20.080Z,58.90
2019-03-04T07:12:57.863Z,60.10
2019-03-04T07:15:28.791Z,59.80
2019-03-04T07:17:59.636Z,59.70
2019-03-04T07:20:30.375Z,58.50
2019-03-04T07:23:01.286Z,59.00
2019-03-04T07:25:32.141Z,58.60
2019-03-04T07:28:02.908Z,59.10
2019-03-04T07:30:34.037Z,58.40
2019-03-04T07:33:05.400Z,58.30
2019-03-04T07:35:36.129Z,58.40
2019-03-04T07:38:28.062Z,58.70
2019-03-04T07:40:58.950Z,58.80
2019-03-04T07:43:37.266Z,59.60
2019-03-04T07:46:08.044Z,58.20
2019-03-04T07:48:38.881Z,56.90
2019-03-04T07:51:14.366Z,56.00
2019-03-04T07:53:46.625Z,56.60
2019-03-04T07:56:21.307Z,57.70
2019-03-04T07:58:50.973Z,57.90
2019-03-04T08:01:25.735Z,56.70
2019-03-04T08:03:56.493Z,56.80
2019-03-04T08:06:27.325Z,56.90
2019-03-04T08:09:37.353Z,58.60
2019-03-04T08:12:35.123Z,58.30
2019-03-04T08:15:07.160Z,57.70
2019-03-04T08:17:37.868Z,56.90
2019-03-04T08:20:09.425Z,58.10
2019-03-04T08:22:40.385Z,57.80
2019-03-04T08:25:11.982Z,57.90
2019-03-04T08:27:42.717Z,56.70
2019-03-04T08:30:16.139Z,56.10
2019-03-04T08:32:46.884Z,55.50
2019-03-04T08:35:17.608Z,55.50
2019-03-04T08:37:48.527Z,57.00
2019-03-04T08:40:19.297Z,57.80
2019-03-04T08:42:50.004Z,57.50
2019-03-04T08:45:21.517Z,58.40
2019-03-04T08:47:52.632Z,56.70
2019-03-04T08:50:23.675Z,56.10
2019-03-04T08:53:16.683Z,56.30
2019-03-04T08:55:47.764Z,57.00
2019-03-04T08:58:18.604Z,56.80
2019-03-04T09:00:49.464Z,56.60
2019-03-04T09:03:21.380Z,57.00
2019-03-04T09:05:52.132Z,57.60
2019-03-04T09:08:43.314Z,59.40
2019-03-04T09:11:14.511Z,59.10
2019-03-04T09:13:45.554Z,58.70
2019-03-04T09:16:16.711Z,58.90
2019-03-04T09:18:47.440Z,58.00
2019-03-04T09:21:18.260Z,57.60
2019-03-04T09:23:50.069Z,59.00
2019-03-04T09:26:21.236Z,58.70
2019-03-04T09:28:52.226Z,58.80
2019-03-04T09:31:23.325Z,59.70
2019-03-04T09:33:54.084Z,58.70
2019-03-04T09:36:24.927Z,58.70
2019-03-04T09:38:55.925Z,60.60
2019-03-04T09:41:26.706Z,60.70
2019-03-04T09:44:14.314Z,59.70
2019-03-04T09:46:45.069Z,60.60
2019-03-04T09:49:15.817Z,62.80
2019-03-04T09:51:46.820Z,61.90
2019-03-04T09:54:17.476Z,61.80
2019-03-04T09:56:48.531Z,62.90
2019-03-04T09:59:19.432Z,64.10
2019-03-04T10:01:52.001Z,64.20
2019-03-04T10:04:34.006Z,64.60
2019-03-04T10:07:07.148Z,63.90
2019-03-04T10:09:49.716Z,61.90
2019-03-04T10:12:38.021Z,62.10
2019-03-04T10:15:20.647Z,62.80
2019-03-04T10:18:15.105Z,64.50
2019-03-04T10:21:05.160Z,64.00
2019-03-04T10:24:06.043Z,63.90
2019-03-04T10:27:05.270Z,64.60
2019-03-04T10:29:53.493Z,64.50
2019-03-04T10:32:43.437Z,65.70
2019-03-04T10:35:28.860Z,66.60
2019-03-04T10:38:08.144Z,65.30
2019-03-04T10:41:08.717Z,64.70
2019-03-04T10:43:57.132Z,63.20
2019-03-04T10:46:54.151Z,64.30
2019-03-04T10:49:25.452Z,65.20
2019-03-04T10:51:56.204Z,66.00
2019-03-04T10:54:26.944Z,66.50
2019-03-04T10:56:58.287Z,66.00
2019-03-04T10:59:29.098Z,66.30
2019-03-04T11:01:59.838Z,66.60
2019-03-04T11:04:30.737Z,67.50
2019-03-04T11:07:01.518Z,68.30
2019-03-04T11:09:32.429Z,68.30
2019-03-04T11:12:03.453Z,68.40
2019-03-04T11:14:34.540Z,68.50
2019-03-04T11:17:05.390Z,69.10
2019-03-04T11:19:36.257Z,69.20
2019-03-04T11:22:07.019Z,69.20
2019-03-04T11:24:37.767Z,69.80
2019-03-04T11:27:08.590Z,70.50
2019-03-04T11:29:39.274Z,70.80
2019-03-04T11:32:10.301Z,71.10
2019-03-04T11:34:42.701Z,71.30
2019-03-04T11:37:13.224Z,71.80
2019-03-04T11:39:52.432Z,72.40
2019-03-04T11:42:23.281Z,72.70
2019-03-04T11:44:54.030Z,73.10
2019-03-04T11:47:26.530Z,73.50
2019-03-04T11:49:57.343Z,73.10
2019-03-04T11:52:28.085Z,73.30
2019-03-04T11:54:58.954Z,73.40
2019-03-04T11:57:30.187Z,73.70
2019-03-04T12:00:01.003Z,74.20
2019-03-04T12:02:38.901Z,74.50
2019-03-04T12:05:06.274Z,74.20
2019-03-04T12:07:37.475Z,74.30
2019-03-04T12:10:13.341Z,74.30
2019-03-04T12:12:44.262Z,74.60
2019-03-04T12:15:21.968Z,75.00
2019-03-04T12:17:52.898Z,75.10
2019-03-04T12:20:23.671Z,75.70
2019-03-04T12:22:54.381Z,75.80
2019-03-04T12:25:25.521Z,75.60
2019-03-04T12:27:56.335Z,75.80
2019-03-04T12:30:30.932Z,75.80
2019-03-04T12:33:01.722Z,76.00
2019-03-04T12:35:32.456Z,76.10
2019-03-04T12:38:03.525Z,75.80
2019-03-04T12:40:34.375Z,76.20
2019-03-04T12:43:05.104Z,75.20
2019-03-04T12:45:35.974Z,74.80
2019-03-04T12:48:07.069Z,75.00
2019-03-04T12:50:38.754Z,75.10
2019-03-04T12:53:09.797Z,75.40
2019-03-04T12:55:40.740Z,75.10
2019-03-04T12:58:12.011Z,75.60
2019-03-04T13:00:42.821Z,75.40
2019-03-04T13:03:21.772Z,75.50
2019-03-04T13:05:52.484Z,75.50
2019-03-04T13:08:23.227Z,75.60
2019-03-04T13:10:54.199Z,75.90
2019-03-04T13:13:25.000Z,76.30
2019-03-04T13:16:14.849Z,76.40
2019-03-04T13:18:45.616Z,76.70
2019-03-04T13:21:16.365Z,76.80
2019-03-04T13:23:56.872Z,76.70
2019-03-04T13:26:27.640Z,77.60
2019-03-04T13:28:58.459Z,77.00
2019-03-04T13:31:29.639Z,77.30
2019-03-04T13:34:15.517Z,77.10
2019-03-04T13:36:59.300Z,77.10
2019-03-04T13:39:30.074Z,77.30
2019-03-04T13:45:30.438Z,77.40
2019-03-04T13:48:01.493Z,77.50
2019-03-04T13:50:33.036Z,78.20
2019-03-04T13:53:03.812Z,77.80
2019-03-04T13:55:34.654Z,77.70
2019-03-04T13:58:05.467Z,78.00
2019-03-04T14:00:41.614Z,78.50
2019-03-04T14:03:15.866Z,78.20
2019-03-04T14:05:46.692Z,78.40
2019-03-04T14:08:18.054Z,78.40
2019-03-04T14:10:51.229Z,78.80
2019-03-04T14:13:22.080Z,78.70
2019-03-04T14:15:55.341Z,78.40
2019-03-04T14:18:26.421Z,78.30
2019-03-04T14:20:57.156Z,78.20
2019-03-04T14:23:40.561Z,78.20
2019-03-04T14:26:43.399Z,77.40
2019-03-04T14:29:14.544Z,77.50
2019-03-04T14:31:48.038Z,77.40
2019-03-04T14:34:20.476Z,77.50
2019-03-04T14:36:51.323Z,77.50
2019-03-04T14:39:22.126Z,77.50
2019-03-04T14:41:53.302Z,78.00
2019-03-04T14:44:24.213Z,77.70
2019-03-04T14:46:55.094Z,77.90
2019-03-04T14:49:27.460Z,78.40
2019-03-04T14:51:58.189Z,79.20
2019-03-04T14:55:00.812Z,78.60
2019-03-04T14:57:32.958Z,78.50
2019-03-04T15:00:03.857Z,78.90
2019-03-04T15:02:35.028Z,78.70
2019-03-04T15:05:06.720Z,78.70
2019-03-04T15:07:37.698Z,78.40
2019-03-04T15:10:11.904Z,78.30
2019-03-04T15:12:42.848Z,78.70
2019-03-04T15:15:21.257Z,78.10
2019-03-04T15:17:52.217Z,78.00
2019-03-04T15:20:27.991Z,78.10
2019-03-04T15:22:57.999Z,78.50
2019-03-04T15:25:31.616Z,78.90
2019-03-04T15:28:14.356Z,78.80
2019-03-04T15:30:48.713Z,79.20
2019-03-04T15:33:19.691Z,79.60
2019-03-04T15:35:50.695Z,80.00
2019-03-04T15:39:00.615Z,79.10
2019-03-04T15:41:31.489Z,78.70
2019-03-04T15:44:03.701Z,78.40
2019-03-04T15:46:53.687Z,78.40
2019-03-04T15:49:26.104Z,78.50
2019-03-04T15:51:56.955Z,78.70
2019-03-04T15:54:49.174Z,78.40
2019-03-04T15:57:20.143Z,78.50
2019-03-04T15:59:50.873Z,78.60
2019-03-04T16:02:40.752Z,78.70
2019-03-04T16:05:14.710Z,78.70
2019-03-04T16:07:45.614Z,78.80
2019-03-04T16:10:19.391Z,78.80
2019-03-04T16:12:50.314Z,78.60
2019-03-04T16:15:22.044Z,78.10
2019-03-04T16:17:52.791Z,77.90
2019-03-04T16:20:26.724Z,77.30
2019-03-04T16:23:38.667Z,77.00
2019-03-04T16:26:11.102Z,77.00
2019-03-04T16:28:41.901Z,77.10
2019-03-04T16:31:12.648Z,77.00
2019-03-04T16:33:43.509Z,77.00
2019-03-04T16:36:14.174Z,76.40
2019-03-04T16:38:44.912Z,76.30
2019-03-04T16:41:15.955Z,76.40
2019-03-04T16:44:28.314Z,76.40
2019-03-04T16:46:59.312Z,76.10
2019-03-04T16:49:30.187Z,76.30
2019-03-04T16:52:00.921Z,76.00
2019-03-04T16:54:31.821Z,75.60
2019-03-04T16:57:02.606Z,75.40
2019-03-04T16:59:33.344Z,75.20
2019-03-04T17:02:04.248Z,74.70
2019-03-04T17:04:35.318Z,74.60
2019-03-04T17:07:06.352Z,74.60
2019-03-04T17:09:37.256Z,75.10
2019-03-04T17:12:08.033Z,74.80
2019-03-04T17:14:38.764Z,74.50
2019-03-04T17:17:11.465Z,74.70
2019-03-04T17:19:42.181Z,74.60
2019-03-04T17:22:12.926Z,74.80
2019-03-04T17:24:45.665Z,74.80
2019-03-04T17:27:16.450Z,74.60
2019-03-04T17:29:47.184Z,74.80
2019-03-04T17:32:18.033Z,74.70
2019-03-04T17:34:48.752Z,74.70
2019-03-04T17:37:19.435Z,74.70
2019-03-04T17:39:52.255Z,74.60
2019-03-04T17:42:22.592Z,74.50
2019-03-04T17:44:53.599Z,73.90
2019-03-04T17:47:24.382Z,74.00
2019-03-04T17:49:55.105Z,73.20
2019-03-04T17:52:26.011Z,73.10
2019-03-04T17:54:56.792Z,72.80
2019-03-04T17:57:27.529Z,72.80
2019-03-04T17:59:58.425Z,72.80
2019-03-04T18:02:29.196Z,72.70
2019-03-04T18:05:00.301Z,72.80
2019-03-04T18:07:31.201Z,72.90
2019-03-04T18:10:02.129Z,72.90
2019-03-04T18:12:33.174Z,73.40
2019-03-04T18:15:04.164Z,73.70
2019-03-04T18:17:34.908Z,74.20
2019-03-04T18:20:06.804Z,74.40
2019-03-04T18:22:37.955Z,74.60
2019-03-04T18:25:14.118Z,75.40
2019-03-04T18:27:47.317Z,75.60
2019-03-04T18:30:32.473Z,75.90
2019-03-04T18:33:22.677Z,76.10
2019-03-04T19:10:47.228Z,77.80
2019-03-04T19:13:18.173Z,77.80
2019-03-04T19:15:49.104Z,77.60
2019-03-04T19:18:19.892Z,77.60
2019-03-04T19:20:50.822Z,77.60
2019-03-04T19:23:21.780Z,77.60
2019-03-04T19:25:52.604Z,77.20
2019-03-04T19:28:23.554Z,77.20
2019-03-04T19:30:54.706Z,77.50
2019-03-04T19:33:25.687Z,77.20
2019-03-04T19:35:56.636Z,78.50
2019-03-04T19:38:27.568Z,77.90
2019-03-04T19:40:58.403Z,78.10
2019-03-04T19:43:32.959Z,78.00
2019-03-04T19:46:01.504Z,78.40
2019-03-04T19:48:32.209Z,78.10
2019-03-04T19:51:03.100Z,78.40
2019-03-04T19:53:33.815Z,78.30
2019-03-04T19:56:04.548Z,78.40
2019-03-04T19:58:35.409Z,78.30
2019-03-04T20:01:06.725Z,78.00
2019-03-04T20:03:37.436Z,77.80
2019-03-04T20:06:08.588Z,77.80
2019-03-04T20:08:39.657Z,77.70
2019-03-04T20:11:10.666Z,77.30
2019-03-04T20:13:41.537Z,77.30
2019-03-04T20:16:12.270Z,77.00
2019-03-04T20:18:43.185Z,76.80
2019-03-04T20:21:14.050Z,76.90
2019-03-04T20:23:44.792Z,76.90
2019-03-04T20:26:15.698Z,77.00
2019-03-04T20:28:46.465Z,77.10
2019-03-04T20:31:17.612Z,77.20
2019-03-04T20:33:48.500Z,77.20
2019-03-04T20:36:19.458Z,77.10
2019-03-04T20:38:50.330Z,77.00
2019-03-04T20:41:21.291Z,77.20
2019-03-04T20:43:51.961Z,77.30
2019-03-04T20:46:22.741Z,77.20
2019-03-04T20:48:53.621Z,77.90
2019-03-04T20:51:24.377Z,77.20
2019-03-04T20:53:55.147Z,77.00
2019-03-04T20:56:26.048Z,77.00
2019-03-04T20:58:56.823Z,76.90
2019-03-04T21:01:27.657Z,76.70
2019-03-04T21:04:46.342Z,76.80
2019-03-04T21:07:17.486Z,76.80
2019-03-04T21:09:48.627Z,77.80
2019-03-04T21:12:19.634Z,77.30
2019-03-04T21:14:50.392Z,77.50
2019-03-04T21:17:21.265Z,77.70
2019-03-04T21:19:52.196Z,77.80
2019-03-04T21:22:22.868Z,78.10
2019-03-04T21:24:53.600Z,79.00
2019-03-04T21:27:24.556Z,78.20
2019-03-04T21:30:18.704Z,78.40
2019-03-04T21:32:49.970Z,78.50
2019-03-04T21:35:31.924Z,78.20
2019-03-04T21:38:03.021Z,78.30
2019-03-04T21:40:45.264Z,78.30
2019-03-04T21:43:35.127Z,78.20
2019-03-04T21:46:11.632Z,78.30
2019-03-04T21:48:45.654Z,78.20
2019-03-04T21:51:24.868Z,78.30
2019-03-04T21:53:55.776Z,78.60
2019-03-04T21:56:28.792Z,79.10
2019-03-04T21:58:59.692Z,79.40
2019-03-04T22:01:32.835Z,79.30
2019-03-04T22:04:04.000Z,79.20
2019-03-04T22:06:34.664Z,79.40
2019-03-04T22:09:06.496Z,79.40
2019-03-04T22:11:37.684Z,79.70
2019-03-04T22:14:08.560Z,79.90
2019-03-04T22:16:39.400Z,80.00
2019-03-04T22:19:10.704Z,80.10
2019-03-04T22:21:41.369Z,80.30
2019-03-04T22:24:12.151Z,80.80
2019-03-04T22:26:43.072Z,80.90
2019-03-04T22:29:13.839Z,81.30
2019-03-04T22:31:44.933Z,81.50
2019-03-04T22:34:27.984Z,81.70
2019-03-04T22:36:58.836Z,82.00
2019-03-04T22:39:29.676Z,82.10
2019-03-04T22:42:00.574Z,82.30
2019-03-04T22:44:31.368Z,82.50
2019-03-04T22:47:02.144Z,83.40
2019-03-04T22:49:33.337Z,82.80
2019-03-04T22:52:04.123Z,83.10
2019-03-04T22:54:34.907Z,83.40
2019-03-04T22:57:05.914Z,83.40
2019-03-04T22:59:36.768Z,83.50
2019-03-04T23:02:07.931Z,83.70
2019-03-04T23:04:39.181Z,83.80
2019-03-04T23:07:10.838Z,83.80
2019-03-04T23:09:46.647Z,83.70
2019-03-04T23:12:17.972Z,83.90
2019-03-04T23:14:50.109Z,83.90
2019-03-04T23:17:21.252Z,83.70
2019-03-04T23:19:51.861Z,83.90
2019-03-04T23:22:22.791Z,84.10
2019-03-04T23:24:53.551Z,84.00
2019-03-04T23:27:24.287Z,84.00
2019-03-04T23:29:55.192Z,84.10
2019-03-04T23:32:25.968Z,84.40
2019-03-04T23:34:56.696Z,84.50
2019-03-04T23:37:27.979Z,85.40
2019-03-04T23:39:58.956Z,84.70
2019-03-04T23:42:29.831Z,84.80
2019-03-04T23:45:00.761Z,85.00
2019-03-04T23:47:31.496Z,85.10
2019-03-04T23:50:14.091Z,85.10
2019-03-04T23:52:44.850Z,85.20
2019-03-04T23:55:15.789Z,84.90
2019-03-04T23:57:46.705Z,85.10
